createdAt,value
2023-05-20T00:00:38.719Z,89.85
2023-05-20T00:06:02.606Z,90.26
2023-05-20T00:11:25.036Z,90.71
2023-05-20T00:16:47.310Z,91.17
2023-05-20T00:22:09.632Z,91.59
2023-05-20T00:27:32.045Z,91.89
2023-05-20T00:32:54.485Z,92.15
2023-05-20T00:38:16.768Z,92.30
2023-05-20T00:43:39.067Z,92.50
2023-05-20T00:49:03.735Z,92.78
2023-05-20T00:54:26.301Z,92.96
2023-05-20T00:59:49.180Z,93.19
2023-05-20T01:05:12.508Z,93.37
2023-05-20T01:10:36.744Z,93.48
2023-05-20T01:16:01.775Z,93.51
2023-05-20T01:21:24.905Z,93.57
2023-05-20T01:26:48.789Z,93.60
2023-05-20T01:32:14.977Z,93.59
2023-05-20T01:37:40.662Z,93.51
2023-05-20T01:43:04.794Z,93.44
2023-05-20T01:48:28.725Z,93.42
2023-05-20T01:53:51.309Z,93.38
2023-05-20T01:59:14.165Z,93.50
2023-05-20T02:04:36.778Z,93.62
2023-05-20T02:10:00.020Z,93.71
2023-05-20T02:15:22.824Z,93.72
2023-05-20T02:20:47.103Z,93.74
2023-05-20T02:26:10.630Z,93.70
2023-05-20T02:31:33.043Z,93.70
2023-05-20T02:36:55.326Z,93.73
2023-05-20T02:42:18.959Z,93.71
2023-05-20T02:47:41.340Z,93.72
2023-05-20T02:53:03.810Z,93.61
2023-05-20T02:58:26.797Z,93.40
2023-05-20T03:03:49.447Z,93.29
2023-05-20T03:09:11.888Z,93.29
2023-05-20T03:14:34.234Z,93.15
2023-05-20T03:19:56.601Z,93.07
2023-05-20T03:25:19.235Z,92.92
2023-05-20T03:30:42.143Z,92.74
2023-05-20T03:36:04.515Z,92.45
2023-05-20T03:41:26.871Z,92.12
2023-05-20T03:46:49.210Z,91.80
2023-05-20T03:52:11.605Z,91.28
2023-05-20T03:57:34.243Z,90.93
2023-05-20T04:02:56.739Z,90.58
2023-05-20T04:08:19.553Z,90.07
2023-05-20T04:13:43.813Z,89.51
2023-05-20T04:19:06.220Z,89.06
2023-05-20T04:24:28.543Z,88.63
2023-05-20T04:29:50.838Z,88.06
2023-05-20T04:35:14.209Z,87.63
2023-05-20T04:40:36.674Z,87.37
2023-05-20T04:46:00.208Z,87.25
2023-05-20T04:51:23.064Z,87.41
2023-05-20T04:56:46.547Z,87.20
2023-05-20T05:02:09.028Z,86.83
2023-05-20T05:07:31.404Z,86.27
2023-05-20T05:12:53.736Z,85.50
2023-05-20T05:18:17.734Z,84.53
2023-05-20T05:23:40.130Z,83.75
2023-05-20T05:29:02.395Z,83.23
2023-05-20T05:34:24.832Z,82.68
2023-05-20T05:39:47.178Z,81.95
2023-05-20T05:45:10.116Z,81.14
2023-05-20T05:50:32.604Z,80.72
2023-05-20T05:55:55.467Z,80.00
2023-05-20T06:01:17.804Z,79.14
2023-05-20T06:06:40.237Z,78.72
2023-05-20T06:12:03.227Z,78.60
2023-05-20T06:17:26.164Z,78.52
2023-05-20T06:22:49.141Z,77.89
2023-05-20T06:28:12.915Z,77.40
2023-05-20T06:33:36.969Z,76.95
2023-05-20T06:38:59.970Z,76.63
2023-05-20T06:44:23.048Z,76.19
2023-05-20T06:49:47.537Z,75.54
2023-05-20T06:55:10.412Z,74.85
2023-05-20T07:00:32.820Z,74.45
2023-05-20T07:05:55.517Z,73.84
2023-05-20T07:11:17.800Z,73.60
2023-05-20T07:16:40.807Z,72.90
2023-05-20T07:22:03.642Z,72.49
2023-05-20T07:27:25.929Z,72.06
2023-05-20T07:32:48.283Z,70.80
2023-05-20T07:38:11.233Z,70.27
2023-05-20T07:43:33.631Z,68.93
2023-05-20T07:48:55.925Z,68.51
2023-05-20T07:54:18.725Z,67.78
2023-05-20T07:59:41.467Z,68.01
2023-05-20T08:05:05.210Z,67.30
2023-05-20T08:10:28.347Z,66.69
2023-05-20T08:15:51.174Z,65.03
2023-05-20T08:21:14.625Z,64.77
2023-05-20T08:26:36.993Z,62.80
2023-05-20T08:31:59.626Z,61.84
2023-05-20T08:37:22.330Z,61.12
2023-05-20T08:42:47.262Z,59.88
2023-05-20T08:48:11.170Z,59.64
2023-05-20T08:53:36.307Z,59.42
2023-05-20T08:58:59.436Z,59.05
2023-05-20T09:04:23.044Z,58.91
2023-05-20T09:09:47.478Z,58.21
2023-05-20T09:15:10.718Z,58.42
2023-05-20T09:20:35.134Z,58.02
2023-05-20T09:25:58.678Z,58.35
2023-05-20T09:31:22.840Z,57.25
2023-05-20T09:36:49.378Z,56.54
2023-05-20T09:42:20.890Z,56.87
2023-05-20T09:47:45.553Z,55.46
2023-05-20T09:53:10.333Z,53.24
2023-05-20T09:58:36.911Z,52.08
2023-05-20T10:04:03.508Z,50.03
2023-05-20T10:09:42.238Z,50.20
2023-05-20T10:15:26.610Z,46.52
2023-05-20T10:21:01.735Z,47.42
2023-05-20T10:26:27.015Z,45.66
2023-05-20T10:31:52.678Z,47.89
2023-05-20T10:37:20.192Z,45.74
2023-05-20T10:42:49.959Z,45.41
2023-05-20T10:48:15.275Z,46.20
2023-05-20T10:53:47.052Z,46.43
2023-05-20T10:59:10.830Z,47.25
2023-05-20T11:04:35.204Z,46.25
2023-05-20T11:10:04.463Z,47.42
2023-05-20T11:15:29.335Z,45.97
2023-05-20T11:20:54.561Z,43.89
2023-05-20T11:26:18.454Z,45.49
2023-05-20T11:31:41.150Z,47.86
2023-05-20T11:37:11.908Z,45.49
2023-05-20T11:42:34.955Z,47.68
2023-05-20T11:48:08.287Z,49.62
2023-05-20T11:53:38.924Z,51.16
2023-05-20T11:59:06.886Z,46.51
2023-05-20T12:04:29.329Z,45.16
2023-05-20T12:09:51.969Z,44.98
2023-05-20T12:15:14.681Z,45.63
2023-05-20T12:20:38.752Z,44.57
2023-05-20T12:26:01.561Z,42.97
2023-05-20T12:31:23.992Z,45.01
2023-05-20T12:36:46.652Z,47.12
2023-05-20T12:42:09.351Z,47.08
2023-05-20T12:47:33.352Z,44.01
2023-05-20T12:52:55.937Z,43.21
2023-05-20T12:58:18.479Z,42.28
2023-05-20T13:03:40.997Z,43.17
2023-05-20T13:09:03.356Z,45.12
2023-05-20T13:14:26.279Z,46.06
2023-05-20T13:19:49.405Z,46.17
2023-05-20T13:25:12.396Z,43.96
2023-05-20T13:30:35.154Z,43.12
2023-05-20T13:35:57.718Z,43.01
2023-05-20T13:41:20.094Z,44.69
2023-05-20T13:46:42.614Z,44.27
2023-05-20T13:52:05.630Z,44.40
2023-05-20T13:57:28.354Z,46.13
2023-05-20T14:02:50.857Z,45.85
2023-05-20T14:08:13.754Z,45.46
2023-05-20T14:13:36.821Z,47.20
2023-05-20T14:18:59.337Z,47.03
2023-05-20T14:24:23.825Z,46.26
2023-05-20T14:29:46.484Z,45.15
2023-05-20T14:35:08.787Z,44.54
2023-05-20T14:40:31.419Z,44.63
2023-05-20T14:45:53.827Z,43.97
2023-05-20T14:51:16.158Z,42.67
2023-05-20T14:56:38.532Z,42.28
2023-05-20T15:02:01.513Z,43.22
2023-05-20T15:07:24.614Z,42.02
2023-05-20T15:12:46.981Z,43.43
2023-05-20T15:18:09.821Z,44.76
2023-05-20T15:23:32.308Z,44.15
2023-05-20T15:28:54.613Z,42.53
2023-05-20T15:34:17.053Z,43.47
2023-05-20T15:39:39.767Z,41.99
2023-05-20T15:45:02.237Z,43.27
2023-05-20T15:50:25.063Z,42.55
2023-05-20T15:55:47.613Z,42.01
2023-05-20T16:01:11.480Z,39.74
2023-05-20T16:06:34.561Z,39.12
2023-05-20T16:11:56.824Z,40.78
2023-05-20T16:17:20.789Z,41.59
2023-05-20T16:22:43.063Z,42.14
2023-05-20T16:28:05.425Z,41.02
2023-05-20T16:33:27.789Z,40.74
2023-05-20T16:38:50.089Z,42.15
2023-05-20T16:44:12.400Z,42.14
2023-05-20T16:49:34.991Z,42.28
2023-05-20T16:54:59.019Z,42.27
2023-05-20T17:00:22.701Z,42.86
2023-05-20T17:05:45.199Z,42.84
2023-05-20T17:11:07.674Z,43.61
2023-05-20T17:16:30.137Z,44.61
2023-05-20T17:21:52.624Z,46.58
2023-05-20T17:27:15.741Z,47.47
2023-05-20T17:32:38.983Z,47.35
2023-05-20T17:38:01.440Z,48.08
2023-05-20T17:43:25.609Z,48.42
2023-05-20T17:48:48.004Z,49.88
2023-05-20T17:54:10.445Z,50.65
2023-05-20T17:59:34.348Z,52.22
2023-05-20T18:04:56.752Z,53.41
2023-05-20T18:10:19.413Z,54.58
2023-05-20T18:15:41.747Z,56.06
2023-05-20T18:21:05.777Z,58.04
2023-05-20T18:26:28.484Z,59.68
2023-05-20T18:31:52.058Z,61.51
2023-05-20T18:37:15.012Z,63.09
2023-05-20T18:42:37.478Z,64.71
2023-05-20T18:48:01.123Z,66.16
2023-05-20T18:53:24.014Z,67.27
2023-05-20T18:58:46.561Z,68.09
2023-05-20T19:04:09.254Z,68.95
2023-05-20T19:09:33.494Z,69.89
2023-05-20T19:14:56.302Z,70.61
2023-05-20T19:20:19.856Z,71.16
2023-05-20T19:25:43.232Z,71.69
2023-05-20T19:31:06.449Z,72.57
2023-05-20T19:36:29.481Z,73.27
2023-05-20T19:41:53.499Z,73.64
2023-05-20T19:47:16.308Z,73.98
2023-05-20T19:52:39.311Z,74.72
2023-05-20T19:58:01.707Z,75.54
2023-05-20T20:03:25.507Z,76.39
2023-05-20T20:08:48.016Z,77.18
2023-05-20T20:14:10.283Z,77.68
2023-05-20T20:19:32.640Z,78.01
2023-05-20T20:24:55.150Z,78.49
2023-05-20T20:30:18.712Z,78.93
2023-05-20T20:35:41.409Z,79.36
2023-05-20T20:41:04.122Z,79.83
2023-05-20T20:46:38.114Z,80.31
2023-05-20T20:52:02.364Z,80.67
2023-05-20T20:57:26.282Z,81.29
2023-05-20T21:02:48.721Z,81.41
2023-05-20T21:08:13.417Z,81.56
2023-05-20T21:13:38.844Z,81.51
2023-05-20T21:19:01.285Z,81.50
2023-05-20T21:24:23.672Z,81.83
2023-05-20T21:29:46.139Z,82.32
2023-05-20T21:35:08.512Z,82.61
2023-05-20T21:40:31.804Z,83.07
2023-05-20T21:45:54.182Z,83.59
2023-05-20T21:51:16.527Z,84.23
2023-05-20T21:56:39.551Z,84.71
2023-05-20T22:02:02.109Z,85.25
2023-05-20T22:07:25.098Z,85.64
2023-05-20T22:12:51.239Z,86.15
2023-05-20T22:18:15.099Z,86.28
2023-05-20T22:23:38.196Z,86.11
2023-05-20T22:29:00.757Z,85.98
2023-05-20T22:34:23.127Z,85.91
2023-05-20T22:39:46.390Z,85.87
2023-05-20T22:45:08.739Z,85.87
2023-05-20T22:50:32.895Z,85.94
2023-05-20T22:55:56.167Z,86.25
2023-05-20T23:01:19.370Z,85.95
2023-05-20T23:06:41.780Z,85.32
2023-05-20T23:12:04.621Z,85.00
2023-05-20T23:17:27.039Z,84.83
2023-05-20T23:22:51.673Z,84.78
2023-05-20T23:28:13.974Z,84.88
2023-05-20T23:33:36.361Z,85.03
2023-05-20T23:38:58.893Z,85.36
2023-05-20T23:44:21.491Z,85.47
2023-05-20T23:49:47.860Z,85.68
2023-05-20T23:55:10.776Z,85.81
